Time;durP1;ratioP1;P1;durP2;ratioP2;P2;SDS_P1;SDS_P2;PMS_P1;PMS_P2;Temp;Humidity;BMP_temperature;BMP_pressure;BME280_temperature;BME280_humidity;BME280_pressure;Samples;Min_cycle;Max_cycle;Signal;HPM_P1;HPM_P2
2021/03/15 00:04:14;;;;;;;0.70;0.70;;;;;;;2.47;78.52;96660.66;299395;222;63009;-61
2021/03/15 00:09:15;;;;;;;0.70;0.70;;;;;;;2.44;78.18;96658.47;299395;197;63005;-58
2021/03/15 00:14:16;;;;;;;0.70;0.70;;;;;;;2.26;79.32;96658.75;299395;208;63008;-56
2021/03/15 00:19:17;;;;;;;0.70;0.70;;;;;;;2.40;78.46;96657.38;299395;241;63004;-55
2021/03/15 00:24:18;;;;;;;0.70;0.70;;;;;;;2.27;78.70;96647.00;299395;249;63009;-58
2021/03/15 00:29:21;;;;;;;0.80;0.80;;;;;;;2.33;78.64;96636.12;299395;263;63004;-56
2021/03/15 00:34:22;;;;;;;0.70;0.70;;;;;;;2.30;78.92;96641.16;299395;248;63009;-57
2021/03/15 00:39:24;;;;;;;0.80;0.80;;;;;;;2.28;79.06;96635.22;299394;210;64005;-56
2021/03/15 00:44:24;;;;;;;0.70;0.70;;;;;;;2.04;80.21;96637.28;299395;248;63021;-57
2021/03/15 00:49:26;;;;;;;0.80;0.80;;;;;;;2.14;79.68;96636.62;299395;203;63004;-56
2021/03/15 00:54:26;;;;;;;0.70;0.70;;;;;;;1.98;80.22;96627.56;299395;223;63020;-56
2021/03/15 00:59:27;;;;;;;0.70;0.70;;;;;;;2.18;79.68;96629.72;299395;207;63004;-59
2021/03/15 01:04:28;;;;;;;0.80;0.80;;;;;;;1.95;80.59;96639.56;299395;252;63009;-57
2021/03/15 01:09:29;;;;;;;0.80;0.80;;;;;;;2.05;79.83;96628.22;299394;217;64005;-56
2021/03/15 01:14:30;;;;;;;0.70;0.70;;;;;;;1.80;81.75;96625.94;299395;211;63009;-56
2021/03/15 01:19:31;;;;;;;0.70;0.70;;;;;;;1.79;82.00;96627.00;299395;198;63004;-57
2021/03/15 01:24:32;;;;;;;0.70;0.70;;;;;;;1.86;80.83;96622.28;299394;205;64013;-57
2021/03/15 01:29:33;;;;;;;0.70;0.70;;;;;;;1.73;81.76;96630.66;299395;222;63005;-57
2021/03/15 01:34:34;;;;;;;0.70;0.70;;;;;;;1.62;82.38;96618.16;299395;258;63009;-57
2021/03/15 01:39:35;;;;;;;0.70;0.70;;;;;;;1.65;82.12;96609.66;299395;271;63005;-56
2021/03/15 01:44:37;;;;;;;0.80;0.80;;;;;;;1.68;81.82;96606.50;299395;261;63009;-56
2021/03/15 01:49:38;;;;;;;0.70;0.70;;;;;;;1.53;82.42;96592.88;299395;260;63004;-57
2021/03/15 01:54:40;;;;;;;0.70;0.70;;;;;;;1.63;81.81;96587.69;299395;239;63009;-56
2021/03/15 01:59:41;;;;;;;0.70;0.70;;;;;;;1.61;81.97;96590.62;299395;255;63005;-56
2021/03/15 02:04:41;;;;;;;0.70;0.70;;;;;;;1.65;82.13;96582.91;299395;208;63009;-57
2021/03/15 02:09:42;;;;;;;0.73;0.73;;;;;;;1.45;82.67;96569.22;299395;202;63021;-57
2021/03/15 02:15:09;;;;;;;0.75;0.75;;;;;;;1.70;81.37;96556.25;299395;212;63009;-56
2021/03/15 02:20:38;;;;;;;0.70;0.70;;;;;;;1.57;82.28;96540.53;299395;202;63009;-57
2021/03/15 02:26:30;;;;;;;0.70;0.70;;;;;;;1.47;82.87;96540.37;299395;253;63009;-57
2021/03/15 02:32:21;;;;;;;0.80;0.80;;;;;;;1.78;81.56;96531.75;299395;243;63005;-57
2021/03/15 02:37:29;;;;;;;0.80;0.80;;;;;;;1.77;81.77;96524.78;299395;210;63009;-56
2021/03/15 02:42:31;;;;;;;0.70;0.70;;;;;;;1.70;82.35;96518.81;299395;269;63004;-56
2021/03/15 02:47:37;;;;;;;0.70;0.70;;;;;;;1.86;81.49;96515.28;299395;212;63009;-56
2021/03/15 02:52:47;;;;;;;0.70;0.70;;;;;;;1.86;81.14;96501.91;299395;210;63005;-57
2021/03/15 02:57:50;;;;;;;0.70;0.70;;;;;;;1.78;81.96;96494.28;299395;202;63008;-56
2021/03/15 03:02:52;;;;;;;0.73;0.73;;;;;;;1.69;82.29;96490.44;299395;214;63004;-57
2021/03/15 03:07:55;;;;;;;0.80;0.80;;;;;;;1.74;82.34;96493.16;299395;216;63009;-57
2021/03/15 03:12:58;;;;;;;0.70;0.70;;;;;;;1.70;82.29;96476.03;299395;287;63004;-56
2021/03/15 03:18:03;;;;;;;0.70;0.70;;;;;;;1.62;82.67;96473.75;299395;202;63009;-56
2021/03/15 03:23:05;;;;;;;0.70;0.70;;;;;;;1.58;82.70;96467.28;299395;197;63005;-58
2021/03/15 03:28:11;;;;;;;0.70;0.70;;;;;;;1.51;82.08;96455.94;299395;212;63008;-56
2021/03/15 03:33:13;;;;;;;0.70;0.70;;;;;;;1.41;82.87;96458.47;299395;206;63004;-56
2021/03/15 03:38:14;;;;;;;0.70;0.70;;;;;;;1.36;83.10;96442.37;299395;226;63009;-58
2021/03/15 03:43:15;;;;;;;0.80;0.80;;;;;;;1.36;83.10;96437.03;299395;266;63004;-57
2021/03/15 03:48:17;;;;;;;0.80;0.80;;;;;;;1.42;83.30;96442.19;299395;226;63009;-57
2021/03/15 03:54:12;;;;;;;0.70;0.70;;;;;;;1.41;83.12;96442.41;299395;276;63005;-56
2021/03/15 03:59:18;;;;;;;0.80;0.80;;;;;;;1.41;83.44;96439.75;299395;204;63023;-57
2021/03/15 04:04:23;;;;;;;0.80;0.80;;;;;;;1.34;83.62;96434.59;299395;208;63004;-56
2021/03/15 04:09:36;;;;;;;0.70;0.70;;;;;;;1.42;83.94;96446.72;299417;249;63009;-56
2021/03/15 04:14:44;;;;;;;0.70;0.70;;;;;;;1.49;83.81;96437.47;299395;226;63005;-57
2021/03/15 04:19:52;;;;;;;0.70;0.70;;;;;;;1.43;84.09;96427.75;299395;197;63008;-56
2021/03/15 04:24:56;;;;;;;0.80;0.80;;;;;;;1.49;84.15;96425.97;299395;286;63004;-56
2021/03/15 04:29:59;;;;;;;0.70;0.70;;;;;;;1.51;84.46;96413.16;299417;205;63022;-56
2021/03/15 04:35:01;;;;;;;0.70;0.70;;;;;;;1.43;84.51;96410.91;299373;241;63004;-57
2021/03/15 04:40:04;;;;;;;0.80;0.80;;;;;;;1.51;84.52;96402.47;299395;222;63009;-56
2021/03/15 04:45:07;;;;;;;0.77;0.77;;;;;;;1.45;84.62;96398.91;299395;202;63005;-56
2021/03/15 04:50:12;;;;;;;0.70;0.70;;;;;;;1.49;84.77;96384.00;299395;220;63008;-56
2021/03/15 04:55:13;;;;;;;0.80;0.80;;;;;;;1.44;84.35;96381.25;299417;229;63004;-57
2021/03/15 05:00:16;;;;;;;0.70;0.70;;;;;;;1.63;84.13;96373.75;299395;217;63009;-57
2021/03/15 05:05:18;;;;;;;0.70;0.70;;;;;;;1.59;84.55;96373.44;299395;208;63005;-57
2021/03/15 05:10:20;;;;;;;0.80;0.80;;;;;;;1.45;85.39;96371.38;299395;259;63009;-56
2021/03/15 05:15:21;;;;;;;0.80;0.80;;;;;;;1.55;84.68;96368.84;299395;204;63005;-57
2021/03/15 05:20:24;;;;;;;0.80;0.80;;;;;;;1.62;84.97;96361.44;299395;203;63020;-57
2021/03/15 05:25:26;;;;;;;0.70;0.70;;;;;;;1.62;85.05;96350.75;299395;196;63004;-57
2021/03/15 05:30:29;;;;;;;0.80;0.80;;;;;;;1.54;85.20;96343.97;299395;203;63009;-56
2021/03/15 05:35:34;;;;;;;0.70;0.70;;;;;;;1.60;85.34;96344.84;299395;207;63005;-56
2021/03/15 05:40:38;;;;;;;0.70;0.70;;;;;;;1.55;85.51;96329.53;299395;215;63009;-56
2021/03/15 05:46:12;;;;;;;0.70;0.70;;;;;;;1.55;85.75;96328.72;299395;220;63008;-57
2021/03/15 05:51:59;;;;;;;0.70;0.70;;;;;;;1.55;85.73;96318.03;299395;227;63009;-57
2021/03/15 05:57:42;;;;;;;0.70;0.70;;;;;;;1.46;85.93;96306.16;299417;268;63004;-57
2021/03/15 06:03:29;;;;;;;0.80;0.80;;;;;;;1.52;85.88;96303.28;299395;224;63009;-57
2021/03/15 06:08:40;;;;;;;0.80;0.80;;;;;;;1.45;86.09;96291.16;299417;231;63004;-57
2021/03/15 06:13:42;;;;;;;0.70;0.70;;;;;;;1.46;86.20;96279.41;299395;225;63009;-57
2021/03/15 06:18:44;;;;;;;0.70;0.70;;;;;;;1.42;86.39;96280.97;299395;202;63004;-56
2021/03/15 06:23:45;;;;;;;0.80;0.80;;;;;;;1.45;86.45;96275.94;299395;196;63009;-57
2021/03/15 06:28:46;;;;;;;0.75;0.75;;;;;;;1.46;86.63;96272.22;299395;210;63005;-59
2021/03/15 06:33:49;;;;;;;0.80;0.80;;;;;;;1.38;86.54;96259.31;299395;229;63008;-58
2021/03/15 06:38:51;;;;;;;0.80;0.80;;;;;;;1.43;86.60;96255.84;299395;222;63004;-57
2021/03/15 06:43:52;;;;;;;0.80;0.80;;;;;;;1.53;85.87;96251.44;299395;257;63018;-59
2021/03/15 06:48:54;;;;;;;0.70;0.70;;;;;;;1.52;86.21;96249.00;299395;206;63004;-58
2021/03/15 06:53:55;;;;;;;0.70;0.70;;;;;;;1.87;85.31;96249.38;299395;203;63009;-57
2021/03/15 06:58:59;;;;;;;0.80;0.80;;;;;;;1.81;85.66;96238.88;299395;213;63005;-57
2021/03/15 07:04:08;;;;;;;0.90;0.90;;;;;;;2.11;83.95;96246.38;299417;254;63008;-57
2021/03/15 07:09:15;;;;;;;0.77;0.77;;;;;;;2.04;84.84;96241.25;299395;206;63004;-58
2021/03/15 07:14:27;;;;;;;0.70;0.70;;;;;;;1.98;85.35;96243.06;299395;226;63009;-58
2021/03/15 07:19:28;;;;;;;0.80;0.80;;;;;;;2.19;84.06;96237.88;299395;230;63005;-55
2021/03/15 07:24:31;;;;;;;0.70;0.70;;;;;;;2.40;82.48;96234.31;299395;225;63009;-58
2021/03/15 07:29:33;;;;;;;0.80;0.80;;;;;;;2.33;82.78;96260.47;299395;251;63005;-59
2021/03/15 07:34:34;;;;;;;0.70;0.70;;;;;;;2.18;83.00;96263.84;299395;255;63009;-57
2021/03/15 07:39:35;;;;;;;0.80;0.80;;;;;;;2.07;82.74;96264.00;299395;234;63004;-58
2021/03/15 07:44:49;;;;;;;0.70;0.70;;;;;;;1.58;83.87;96262.19;299395;228;63009;-57
2021/03/15 07:49:58;;;;;;;0.80;0.80;;;;;;;1.37;85.61;96246.19;299395;210;63005;-58
2021/03/15 07:54:59;;;;;;;0.80;0.80;;;;;;;1.39;86.29;96250.19;299395;213;63009;-59
2021/03/15 08:00:00;;;;;;;0.80;0.80;;;;;;;1.46;86.25;96245.47;299395;205;63005;-59
2021/03/15 08:05:01;;;;;;;0.80;0.80;;;;;;;1.56;85.98;96250.13;299395;280;63009;-56
2021/03/15 08:10:03;;;;;;;0.80;0.80;;;;;;;1.72;85.50;96251.13;299395;202;63004;-58
2021/03/15 08:15:07;;;;;;;0.70;0.70;;;;;;;2.05;84.25;96260.78;299395;198;63009;-58
2021/03/15 08:20:10;;;;;;;0.80;0.80;;;;;;;2.15;83.31;96263.53;299418;202;63005;-57
2021/03/15 08:25:13;;;;;;;0.70;0.70;;;;;;;2.31;83.74;96267.97;299396;233;63009;-58
2021/03/15 08:30:18;;;;;;;0.80;0.80;;;;;;;2.41;82.82;96262.69;299396;242;63004;-56
2021/03/15 08:35:19;;;;;;;;;;;;;;;2.59;83.12;96274.87;299997;983;6005;-58
2021/03/15 08:41:04;;;;;;;0.80;0.80;;;;;;;2.86;81.68;96267.53;299401;240;63008;-58
2021/03/15 08:46:17;;;;;;;0.80;0.80;;;;;;;2.56;83.82;96270.81;299396;236;63004;-58
2021/03/15 08:51:53;;;;;;;0.70;0.70;;;;;;;2.64;83.75;96277.56;299396;230;63009;-58
2021/03/15 08:56:54;;;;;;;0.80;0.80;;;;;;;2.64;84.56;96267.66;299418;221;63005;-62
2021/03/15 09:01:59;;;;;;;0.80;0.80;;;;;;;2.69;83.23;96275.75;299396;248;63009;-54
2021/03/15 09:07:02;;;;;;;0.80;0.80;;;;;;;2.46;84.96;96281.44;299397;218;63005;-56
2021/03/15 09:12:04;;;;;;;0.80;0.80;;;;;;;2.67;83.68;96277.88;299397;228;63009;-58
2021/03/15 09:17:34;;;;;;;0.70;0.70;;;;;;;2.73;83.91;96283.28;299396;251;63004;-56
2021/03/15 09:22:38;;;;;;;0.70;0.70;;;;;;;2.92;82.76;96285.25;299396;196;63009;-56
2021/03/15 09:27:43;;;;;;;0.82;0.82;;;;;;;2.99;82.84;96287.72;299396;295;63005;-58
2021/03/15 09:32:49;;;;;;;0.80;0.80;;;;;;;3.01;82.91;96293.62;299396;235;63008;-57
2021/03/15 09:38:02;;;;;;;0.70;0.70;;;;;;;3.09;82.89;96292.34;299396;221;63004;-58
2021/03/15 09:43:04;;;;;;;0.70;0.70;;;;;;;3.28;82.41;96299.66;299396;206;63009;-58
2021/03/15 09:48:23;;;;;;;0.70;0.70;;;;;;;3.35;82.54;96300.25;299396;316;63004;-54
2021/03/15 09:53:24;;;;;;;0.80;0.80;;;;;;;3.29;83.07;96295.91;299396;223;63009;-57
2021/03/15 09:58:26;;;;;;;0.70;0.70;;;;;;;3.24;84.01;96297.75;299396;214;63005;-56
2021/03/15 10:03:30;;;;;;;0.80;0.80;;;;;;;3.25;84.65;96294.81;299397;227;63009;-56
2021/03/15 10:08:32;;;;;;;0.70;0.70;;;;;;;3.45;84.37;96298.69;299395;208;63004;-57
2021/03/15 10:13:34;;;;;;;0.70;0.70;;;;;;;3.77;83.16;96302.00;299395;253;63009;-56
2021/03/15 10:18:35;;;;;;;0.70;0.70;;;;;;;3.75;83.26;96304.16;299395;205;63005;-58
2021/03/15 10:23:41;;;;;;;0.73;0.73;;;;;;;3.65;83.79;96309.47;299395;197;63004;-58
2021/03/15 10:28:48;;;;;;;0.70;0.70;;;;;;;3.61;84.81;96314.56;299395;225;63009;-62
2021/03/15 10:33:50;;;;;;;0.80;0.80;;;;;;;3.57;85.99;96318.03;299395;197;63024;-56
2021/03/15 10:38:52;;;;;;;0.80;0.80;;;;;;;3.69;84.72;96326.66;299395;236;63004;-57
2021/03/15 10:43:53;;;;;;;0.70;0.70;;;;;;;3.65;85.02;96326.38;299395;244;63009;-55
2021/03/15 10:48:55;;;;;;;0.80;0.80;;;;;;;3.73;83.95;96326.94;299395;224;63005;-60
2021/03/15 10:53:56;;;;;;;0.80;0.80;;;;;;;3.86;84.75;96332.63;299395;206;63008;-59
2021/03/15 10:58:57;;;;;;;0.95;0.95;;;;;;;3.91;84.17;96331.81;299395;202;63004;-56
2021/03/15 11:04:11;;;;;;;0.70;0.70;;;;;;;4.13;83.09;96337.00;299395;301;63009;-61
2021/03/15 11:09:17;;;;;;;0.70;0.70;;;;;;;4.26;83.36;96336.47;299395;336;63004;-57
2021/03/15 11:14:18;;;;;;;0.70;0.70;;;;;;;4.42;82.94;96356.13;299395;267;63004;-61
2021/03/15 11:19:19;;;;;;;0.80;0.80;;;;;;;4.31;83.74;96352.59;299395;222;63005;-58
2021/03/15 11:24:28;;;;;;;0.85;0.85;;;;;;;4.30;81.79;96351.00;299395;244;63008;-58
2021/03/15 11:29:42;;;;;;;0.90;0.90;;;;;;;4.33;82.54;96366.56;299395;304;63004;-59
2021/03/15 11:34:47;;;;;;;0.98;0.98;;;;;;;4.37;81.60;96375.72;299395;289;63009;-60
2021/03/15 11:39:50;;;;;;;0.70;0.70;;;;;;;4.43;80.40;96369.28;299395;363;63005;-60
2021/03/15 11:44:51;;;;;;;0.70;0.70;;;;;;;4.64;80.16;96365.53;299395;239;63009;-58
2021/03/15 11:49:52;;;;;;;0.70;0.70;;;;;;;4.59;79.85;96362.03;299395;202;63009;-60
2021/03/15 11:54:56;;;;;;;0.70;0.70;;;;;;;4.34;79.09;96366.31;299395;214;63008;-57
2021/03/15 11:59:57;;;;;;;3.77;3.50;;;;;;;4.37;80.00;96367.66;299417;346;63004;-59
2021/03/15 12:04:57;;;;;;;0.95;0.95;;;;;;;4.34;79.37;96370.88;299394;243;64013;-56
2021/03/15 12:09:59;;;;;;;0.85;0.85;;;;;;;4.32;79.12;96373.81;299395;222;63005;-63
2021/03/15 12:15:00;;;;;;;0.95;0.88;;;;;;;4.50;79.44;96380.59;299395;302;63009;-58
2021/03/15 12:20:03;;;;;;;0.70;0.70;;;;;;;4.63;78.89;96396.16;299395;357;63005;-59
2021/03/15 12:25:05;;;;;;;1.00;1.00;;;;;;;4.52;78.41;96389.16;299395;295;63009;-58
2021/03/15 12:30:08;;;;;;;0.80;0.80;;;;;;;4.32;79.18;96394.50;299395;334;63004;-59
2021/03/15 12:35:10;;;;;;;0.77;0.77;;;;;;;4.29;78.71;96400.41;299395;346;63009;-58
2021/03/15 12:40:12;;;;;;;0.70;0.70;;;;;;;4.33;77.69;96396.94;299395;342;63005;-56
2021/03/15 12:45:14;;;;;;;0.80;0.80;;;;;;;4.50;78.42;96404.75;299395;284;63009;-57
2021/03/15 12:50:15;;;;;;;1.65;1.40;;;;;;;4.67;74.50;96385.69;299395;344;63005;-58
2021/03/15 12:55:16;;;;;;;1.02;1.02;;;;;;;5.01;74.86;96391.34;299395;297;63009;-63
2021/03/15 13:00:18;;;;;;;1.42;1.25;;;;;;;5.33;71.63;96394.53;299395;339;63004;-60
2021/03/15 13:05:18;;;;;;;0.80;0.80;;;;;;;5.18;69.80;96399.97;299395;272;63009;-55
2021/03/15 13:10:20;;;;;;;0.90;0.90;;;;;;;5.12;68.23;96400.22;299395;406;63005;-60
2021/03/15 13:15:21;;;;;;;1.23;1.23;;;;;;;5.11;65.96;96407.50;299395;277;63009;-62
2021/03/15 13:20:26;;;;;;;1.33;1.23;;;;;;;5.05;65.52;96404.00;299395;254;63005;-59
2021/03/15 13:25:27;;;;;;;0.70;0.70;;;;;;;5.02;67.23;96414.47;299395;264;63030;-59
2021/03/15 13:30:29;;;;;;;0.70;0.70;;;;;;;5.31;64.29;96420.91;299395;204;63004;-58
2021/03/15 13:35:31;;;;;;;0.70;0.70;;;;;;;5.53;61.04;96431.41;299395;232;63009;-63
2021/03/15 13:40:32;;;;;;;1.05;1.05;;;;;;;5.27;58.09;96427.91;299395;212;63005;-60
2021/03/15 13:45:34;;;;;;;0.80;0.80;;;;;;;5.31;58.53;96434.37;299395;238;63009;-60
2021/03/15 13:50:36;;;;;;;1.08;0.82;;;;;;;5.60;60.04;96437.28;299395;224;63005;-61
2021/03/15 13:55:37;;;;;;;0.80;0.80;;;;;;;5.57;59.93;96439.69;299395;331;63009;-61
2021/03/15 14:00:38;;;;;;;0.70;0.70;;;;;;;5.22;60.16;96441.34;299395;283;63004;-58
2021/03/15 14:05:39;;;;;;;0.70;0.70;;;;;;;5.31;58.96;96441.63;299395;246;63009;-62
2021/03/15 14:10:40;;;;;;;0.70;0.70;;;;;;;5.16;60.68;96452.41;299395;339;63005;-55
2021/03/15 14:15:42;;;;;;;0.80;0.80;;;;;;;5.26;59.02;96431.66;299395;199;63008;-57
2021/03/15 14:20:43;;;;;;;0.70;0.70;;;;;;;5.53;58.20;96438.66;299395;260;63004;-57
2021/03/15 14:25:44;;;;;;;0.95;0.90;;;;;;;5.91;57.41;96432.66;299395;246;63009;-61
2021/03/15 14:30:45;;;;;;;0.70;0.70;;;;;;;6.34;56.53;96435.72;299395;236;63004;-55
2021/03/15 14:35:47;;;;;;;1.70;1.60;;;;;;;6.38;54.21;96429.50;299395;212;63009;-66
2021/03/15 14:40:50;;;;;;;0.70;0.70;;;;;;;6.11;55.53;96434.50;299395;212;63005;-59
2021/03/15 14:45:51;;;;;;;0.70;0.70;;;;;;;5.96;56.72;96443.41;299395;234;63008;-68
2021/03/15 14:50:53;;;;;;;0.70;0.70;;;;;;;5.77;57.47;96453.12;299395;243;63004;-62
2021/03/15 14:55:54;;;;;;;0.80;0.80;;;;;;;5.64;58.33;96461.78;299395;273;63009;-57
2021/03/15 15:00:55;;;;;;;0.70;0.70;;;;;;;5.55;58.68;96458.00;299395;202;63004;-57
2021/03/15 15:05:56;;;;;;;0.70;0.70;;;;;;;5.74;59.10;96469.84;299395;218;63009;-57
2021/03/15 15:10:57;;;;;;;0.70;0.70;;;;;;;6.16;58.09;96466.00;299395;222;63005;-61
2021/03/15 15:16:00;;;;;;;0.70;0.70;;;;;;;6.18;58.32;96464.63;299395;271;63011;-58
2021/03/15 15:21:04;;;;;;;0.80;0.80;;;;;;;6.34;56.84;96462.66;299395;246;63004;-59
2021/03/15 15:26:05;;;;;;;0.70;0.70;;;;;;;6.68;55.18;96457.37;299417;225;63021;-60
2021/03/15 15:31:06;;;;;;;0.70;0.70;;;;;;;7.09;55.30;96468.72;299395;213;63005;-62
2021/03/15 15:36:07;;;;;;;1.30;1.27;;;;;;;6.95;52.22;96470.44;299395;259;63009;-60
2021/03/15 15:41:08;;;;;;;0.60;0.60;;;;;;;6.66;53.82;96475.72;299395;246;63005;-59
2021/03/15 15:46:09;;;;;;;0.60;0.60;;;;;;;6.66;54.24;96471.13;299395;221;63009;-64
2021/03/15 15:51:11;;;;;;;0.60;0.60;;;;;;;6.42;55.27;96480.97;299395;219;63004;-57
2021/03/15 15:56:12;;;;;;;0.60;0.60;;;;;;;6.04;56.73;96495.91;299395;218;63009;-60
2021/03/15 16:01:14;;;;;;;0.70;0.70;;;;;;;5.77;57.32;96496.22;299395;228;63005;-62
2021/03/15 16:06:15;;;;;;;0.70;0.70;;;;;;;5.60;58.93;96527.97;299395;233;63009;-60
2021/03/15 16:11:16;;;;;;;0.70;0.70;;;;;;;5.52;60.03;96539.31;299395;253;63008;-58
2021/03/15 16:16:17;;;;;;;0.70;0.70;;;;;;;5.42;60.69;96539.28;299395;261;63009;-60
2021/03/15 16:21:18;;;;;;;0.70;0.70;;;;;;;5.56;59.05;96543.03;299395;233;63004;-59
2021/03/15 16:26:19;;;;;;;0.70;0.70;;;;;;;5.72;58.81;96537.41;299395;226;63009;-57
2021/03/15 16:31:24;;;;;;;0.70;0.70;;;;;;;5.87;58.74;96536.59;299395;232;63001;-60
2021/03/15 16:36:25;;;;;;;0.70;0.70;;;;;;;5.77;59.21;96547.38;299395;227;63009;-59
2021/03/15 16:41:27;;;;;;;0.60;0.60;;;;;;;5.62;59.57;96547.34;299395;198;63005;-58
2021/03/15 16:46:27;;;;;;;0.70;0.70;;;;;;;5.48;60.61;96551.69;299395;284;63022;-59
2021/03/15 16:51:29;;;;;;;0.70;0.70;;;;;;;5.38;60.63;96547.09;299395;204;63004;-59
2021/03/15 16:56:29;;;;;;;0.70;0.70;;;;;;;5.34;60.80;96565.66;299395;216;63020;-59
2021/03/15 17:01:30;;;;;;;0.70;0.70;;;;;;;5.55;60.32;96587.19;299395;287;63005;-62
2021/03/15 17:06:31;;;;;;;0.70;0.70;;;;;;;5.31;64.95;96636.12;299395;294;63009;-64
2021/03/15 17:11:35;;;;;;;0.70;0.70;;;;;;;4.57;69.77;96644.44;299395;221;63005;-61
2021/03/15 17:16:36;;;;;;;0.80;0.80;;;;;;;4.19;73.19;96660.84;299395;264;63009;-60
2021/03/15 17:21:37;;;;;;;0.70;0.70;;;;;;;3.92;74.93;96664.41;299394;205;64008;-59
2021/03/15 17:26:38;;;;;;;0.70;0.70;;;;;;;3.97;74.59;96672.50;299395;329;63009;-62
2021/03/15 17:31:39;;;;;;;0.70;0.70;;;;;;;3.92;74.91;96683.19;299395;218;63011;-63
2021/03/15 17:36:40;;;;;;;0.80;0.80;;;;;;;3.85;74.27;96687.16;299395;244;63008;-61
2021/03/15 17:41:41;;;;;;;0.90;0.90;;;;;;;3.79;74.70;96691.69;299395;198;63004;-58
2021/03/15 17:46:43;;;;;;;0.70;0.70;;;;;;;3.61;75.28;96695.53;299395;283;63020;-56
2021/03/15 17:51:44;;;;;;;0.70;0.70;;;;;;;3.50;75.68;96703.72;299395;218;63004;-58
2021/03/15 17:56:45;;;;;;;0.70;0.70;;;;;;;3.45;75.56;96701.81;299395;227;63009;-58
2021/03/15 18:01:46;;;;;;;0.70;0.70;;;;;;;3.51;74.95;96706.13;299395;307;63005;-61
2021/03/15 18:06:47;;;;;;;0.70;0.70;;;;;;;3.48;74.10;96713.88;299395;231;63008;-58
2021/03/15 18:11:49;;;;;;;0.70;0.70;;;;;;;3.51;73.89;96718.75;299395;214;63004;-61
2021/03/15 18:16:52;;;;;;;0.70;0.70;;;;;;;3.56;72.98;96729.53;299395;317;63009;-59
2021/03/15 18:21:53;;;;;;;0.70;0.70;;;;;;;3.37;74.22;96731.75;299395;332;63004;-58
2021/03/15 18:26:54;;;;;;;0.70;0.70;;;;;;;3.41;73.37;96737.44;299395;196;63009;-58
2021/03/15 18:31:55;;;;;;;0.70;0.70;;;;;;;3.48;72.45;96728.09;299395;248;63005;-61
2021/03/15 18:36:56;;;;;;;0.80;0.80;;;;;;;3.40;72.51;96735.81;299395;203;63009;-58
2021/03/15 18:41:57;;;;;;;0.70;0.70;;;;;;;3.54;70.95;96731.66;299395;279;63004;-64
2021/03/15 18:46:58;;;;;;;0.70;0.70;;;;;;;3.48;71.22;96735.34;299395;304;63009;-60
2021/03/15 18:51:59;;;;;;;0.70;0.70;;;;;;;3.49;71.34;96745.00;299395;218;63005;-62
2021/03/15 18:57:01;;;;;;;0.80;0.80;;;;;;;3.50;71.42;96752.81;299395;276;63009;-57
2021/03/15 19:02:02;;;;;;;0.70;0.70;;;;;;;3.49;71.39;96753.87;299395;249;63005;-59
2021/03/15 19:07:03;;;;;;;0.70;0.70;;;;;;;3.46;71.93;96762.44;299395;327;63009;-62
2021/03/15 19:12:06;;;;;;;0.80;0.80;;;;;;;3.41;72.24;96769.63;299395;228;63004;-59
2021/03/15 19:17:09;;;;;;;0.70;0.70;;;;;;;3.35;72.23;96771.41;299395;197;63009;-60
2021/03/15 19:22:10;;;;;;;0.80;0.80;;;;;;;3.30;72.47;96780.19;299395;202;63005;-62
2021/03/15 19:27:12;;;;;;;0.90;0.90;;;;;;;3.32;72.38;96780.75;299395;286;63009;-60
2021/03/15 19:32:13;;;;;;;0.80;0.80;;;;;;;3.36;72.33;96795.31;299395;208;63005;-61
2021/03/15 19:37:14;;;;;;;0.70;0.70;;;;;;;3.42;72.02;96803.41;299395;265;63009;-65
2021/03/15 19:42:15;;;;;;;0.70;0.70;;;;;;;3.36;72.21;96810.59;299395;214;63004;-64
2021/03/15 19:47:18;;;;;;;0.80;0.80;;;;;;;3.36;72.19;96816.75;299395;310;63009;-61
2021/03/15 19:52:19;;;;;;;0.70;0.70;;;;;;;3.40;71.94;96810.91;299395;218;63005;-61
2021/03/15 19:57:20;;;;;;;0.70;0.70;;;;;;;3.41;72.00;96817.88;299395;280;63023;-62
2021/03/15 20:02:21;;;;;;;1.27;1.17;;;;;;;3.45;71.65;96824.38;299395;227;63005;-59
2021/03/15 20:07:22;;;;;;;0.70;0.70;;;;;;;3.45;71.80;96819.00;299395;203;63009;-63
2021/03/15 20:12:23;;;;;;;0.88;0.88;;;;;;;3.45;71.25;96824.38;299395;225;63009;-64
2021/03/15 20:17:24;;;;;;;0.80;0.80;;;;;;;3.41;71.47;96817.88;299395;213;63009;-64
2021/03/15 20:22:25;;;;;;;0.80;0.80;;;;;;;3.49;70.85;96825.47;299395;249;63005;-64
2021/03/15 20:27:26;;;;;;;0.85;0.85;;;;;;;3.55;70.35;96829.84;299395;295;63009;-62
2021/03/15 20:32:27;;;;;;;1.00;1.00;;;;;;;3.55;70.49;96835.22;299395;246;63005;-63
2021/03/15 20:37:28;;;;;;;0.70;0.70;;;;;;;3.56;70.51;96840.34;299395;203;63009;-62
2021/03/15 20:42:29;;;;;;;0.70;0.70;;;;;;;3.55;70.82;96852.13;299395;327;63004;-60
2021/03/15 20:47:33;;;;;;;0.70;0.70;;;;;;;3.58;70.46;96850.81;299395;233;63009;-64
2021/03/15 20:52:35;;;;;;;0.90;0.90;;;;;;;3.54;70.80;96863.09;299417;251;63005;-64
2021/03/15 20:57:45;;;;;;;0.70;0.70;;;;;;;3.59;70.86;96868.53;299396;199;63009;-63
2021/03/15 21:02:50;;;;;;;2.28;2.12;;;;;;;3.57;70.97;96862.59;299396;305;63004;-59
2021/03/15 21:07:51;;;;;;;0.75;0.75;;;;;;;3.56;71.69;96875.22;299396;217;63009;-60
2021/03/15 21:12:52;;;;;;;0.70;0.70;;;;;;;3.43;74.03;96880.16;299396;224;63004;-57
2021/03/15 21:17:53;;;;;;;0.70;0.70;;;;;;;3.31;74.21;96878.38;299396;198;63009;-61
2021/03/15 21:22:59;;;;;;;0.80;0.80;;;;;;;3.30;73.71;96878.63;299396;216;63005;-62
2021/03/15 21:28:00;;;;;;;0.80;0.80;;;;;;;3.30;74.07;96895.53;299396;223;63008;-66
2021/03/15 21:33:04;;;;;;;0.70;0.70;;;;;;;3.26;73.73;96883.66;299396;213;63004;-60
2021/03/15 21:38:07;;;;;;;2.75;1.75;;;;;;;3.32;72.99;96901.44;299396;218;63009;-63
2021/03/15 21:43:08;;;;;;;0.80;0.80;;;;;;;3.28;72.94;96905.69;299397;261;63004;-64
2021/03/15 21:48:09;;;;;;;0.80;0.80;;;;;;;3.25;73.08;96911.53;299396;229;63009;-62
2021/03/15 21:53:12;;;;;;;0.70;0.70;;;;;;;3.21;73.02;96899.66;299396;198;63005;-62
2021/03/15 21:58:13;;;;;;;0.88;0.88;;;;;;;3.28;73.19;96905.69;299396;227;63009;-61
2021/03/15 22:03:16;;;;;;;0.70;0.70;;;;;;;3.21;73.71;96906.91;299396;208;63004;-65
2021/03/15 22:08:17;;;;;;;0.70;0.70;;;;;;;3.20;73.72;96919.50;299396;226;63009;-60
2021/03/15 22:13:19;;;;;;;0.80;0.80;;;;;;;3.21;73.32;96926.47;299395;207;64005;-62
2021/03/15 22:18:20;;;;;;;0.77;0.77;;;;;;;3.21;73.40;96931.84;299396;202;63009;-63
2021/03/15 22:23:21;;;;;;;0.70;0.70;;;;;;;3.14;73.63;96931.19;299396;326;63008;-62
2021/03/15 22:28:22;;;;;;;0.70;0.70;;;;;;;3.19;72.84;96927.78;299396;214;63009;-61
2021/03/15 22:33:24;;;;;;;0.80;0.80;;;;;;;3.17;72.31;96927.22;299395;202;64009;-60
2021/03/15 22:38:25;;;;;;;0.70;0.70;;;;;;;3.17;71.90;96933.38;299397;218;63009;-61
2021/03/15 22:43:27;;;;;;;0.80;0.80;;;;;;;3.15;72.23;96940.03;299395;216;63005;-67
2021/03/15 22:48:28;;;;;;;0.80;0.80;;;;;;;3.14;71.67;96968.72;299395;196;63018;-62
2021/03/15 22:53:29;;;;;;;1.70;0.98;;;;;;;3.11;72.32;96963.88;299395;315;63005;-63
2021/03/15 22:58:30;;;;;;;0.80;0.80;;;;;;;3.11;72.48;96963.06;299395;202;63009;-58
2021/03/15 23:03:31;;;;;;;1.00;1.00;;;;;;;3.08;73.22;96975.09;299395;305;63004;-69
2021/03/15 23:08:37;;;;;;;0.80;0.80;;;;;;;3.05;73.67;96964.84;299395;259;63009;-63
2021/03/15 23:13:38;;;;;;;0.98;0.98;;;;;;;3.16;73.11;96977.34;299395;213;63010;-62
2021/03/15 23:18:41;;;;;;;0.80;0.80;;;;;;;3.17;73.40;96978.97;299395;196;63009;-60
2021/03/15 23:23:44;;;;;;;0.75;0.75;;;;;;;3.10;72.77;96998.97;299395;270;63005;-62
2021/03/15 23:29:01;;;;;;;1.00;1.00;;;;;;;3.06;73.08;96993.28;299395;207;63009;-64
2021/03/15 23:34:02;;;;;;;1.02;1.02;;;;;;;3.06;71.89;96997.84;299395;229;63004;-63
2021/03/15 23:39:09;;;;;;;0.80;0.80;;;;;;;3.08;72.30;97003.75;299395;244;63009;-63
2021/03/15 23:44:11;;;;;;;0.70;0.70;;;;;;;2.99;72.70;97003.34;299395;343;63005;-58
2021/03/15 23:49:12;;;;;;;0.70;0.70;;;;;;;2.93;73.23;97031.91;299395;290;63008;-60
2021/03/15 23:54:13;;;;;;;0.77;0.77;;;;;;;3.00;72.67;97027.22;299395;203;63004;-59
2021/03/15 23:59:14;;;;;;;0.80;0.80;;;;;;;3.06;72.12;97025.44;299395;222;63009;-60
